createdAt,value
2022-10-08T00:01:31.175Z,1.40
2022-10-08T00:03:59.598Z,1.60
2022-10-08T00:06:29.982Z,2.00
2022-10-08T00:08:59.886Z,1.87
2022-10-08T00:11:29.846Z,1.97
2022-10-08T00:13:59.459Z,2.30
2022-10-08T00:16:29.954Z,2.50
2022-10-08T00:19:01.136Z,1.50
2022-10-08T00:21:31.545Z,1.60
2022-10-08T00:24:01.397Z,1.60
2022-10-08T00:26:31.418Z,1.50
2022-10-08T00:29:02.857Z,2.20
2022-10-08T00:31:32.976Z,1.30
2022-10-08T00:34:02.733Z,1.37
2022-10-08T00:36:32.655Z,0.87
2022-10-08T00:39:02.790Z,2.40
2022-10-08T00:41:32.949Z,1.90
2022-10-08T00:44:04.682Z,2.20
2022-10-08T00:46:37.237Z,1.10
2022-10-08T00:49:11.481Z,1.67
2022-10-08T00:51:42.892Z,2.67
2022-10-08T00:54:11.854Z,1.70
2022-10-08T00:56:41.173Z,2.40
2022-10-08T00:59:14.099Z,2.30
2022-10-08T01:01:43.566Z,2.23
2022-10-08T01:04:12.985Z,1.83
2022-10-08T01:06:48.802Z,1.50
2022-10-08T01:09:19.873Z,1.97
2022-10-08T01:11:53.201Z,1.03
2022-10-08T01:14:39.333Z,2.10
2022-10-08T01:17:13.710Z,1.63
2022-10-08T01:20:09.995Z,1.03
2022-10-08T01:22:58.186Z,2.73
2022-10-08T01:25:35.506Z,1.80
2022-10-08T01:28:14.929Z,2.23
2022-10-08T01:30:49.762Z,1.40
2022-10-08T01:33:22.713Z,1.57
2022-10-08T01:35:56.229Z,2.70
2022-10-08T01:38:28.110Z,1.20
2022-10-08T01:40:59.361Z,1.47
2022-10-08T01:43:31.705Z,1.73
2022-10-08T01:46:06.698Z,1.00
2022-10-08T01:48:37.333Z,1.70
2022-10-08T01:51:12.751Z,2.77
2022-10-08T01:53:44.220Z,1.67
2022-10-08T01:56:14.334Z,1.17
2022-10-08T01:58:50.072Z,1.80
2022-10-08T02:01:25.066Z,1.80
2022-10-08T02:04:10.943Z,2.70
2022-10-08T02:06:51.824Z,2.47
2022-10-08T02:09:20.053Z,1.63
2022-10-08T02:11:48.188Z,2.17
2022-10-08T02:14:17.951Z,1.80
2022-10-08T02:16:52.133Z,1.97
2022-10-08T02:19:28.200Z,1.47
2022-10-08T02:21:59.504Z,2.23
2022-10-08T02:24:34.481Z,1.47
2022-10-08T02:27:05.652Z,1.67
2022-10-08T02:29:38.895Z,1.77
2022-10-08T02:32:11.365Z,2.10
2022-10-08T02:34:44.304Z,2.37
2022-10-08T02:37:17.334Z,2.77
2022-10-08T02:39:49.333Z,2.57
2022-10-08T02:42:22.857Z,1.90
2022-10-08T02:44:54.841Z,2.27
2022-10-08T02:47:26.711Z,1.80
2022-10-08T02:49:58.464Z,2.13
2022-10-08T02:52:29.208Z,2.50
2022-10-08T02:55:01.297Z,2.37
2022-10-08T02:57:34.515Z,2.23
2022-10-08T03:00:04.270Z,2.37
2022-10-08T03:02:38.520Z,2.00
2022-10-08T03:05:09.847Z,1.93
2022-10-08T03:07:37.777Z,2.90
2022-10-08T03:10:07.666Z,2.40
2022-10-08T03:12:35.984Z,1.23
2022-10-08T03:15:06.137Z,2.23
2022-10-08T03:17:39.254Z,3.00
2022-10-08T03:20:09.756Z,1.90
2022-10-08T03:22:38.155Z,2.50
2022-10-08T03:25:06.809Z,2.03
2022-10-08T03:27:35.953Z,2.93
2022-10-08T03:30:06.371Z,1.90
2022-10-08T03:32:34.306Z,2.00
2022-10-08T03:35:02.235Z,1.40
2022-10-08T03:37:30.204Z,2.80
2022-10-08T03:39:58.171Z,2.60
2022-10-08T03:42:26.132Z,2.00
2022-10-08T03:44:54.404Z,1.93
2022-10-08T03:47:23.823Z,2.90
2022-10-08T03:49:51.767Z,2.27
2022-10-08T03:52:19.748Z,3.17
2022-10-08T03:54:47.692Z,2.40
2022-10-08T03:57:15.635Z,2.33
2022-10-08T03:59:43.573Z,2.50
2022-10-08T04:02:11.576Z,1.63
2022-10-08T04:04:40.901Z,2.40
2022-10-08T04:07:08.857Z,2.17
2022-10-08T04:09:37.014Z,1.47
2022-10-08T04:12:05.155Z,2.47
2022-10-08T04:14:33.107Z,1.93
2022-10-08T04:17:01.057Z,1.70
2022-10-08T04:19:29.005Z,1.70
2022-10-08T04:21:58.283Z,2.70
2022-10-08T04:24:26.194Z,1.87
2022-10-08T04:26:54.222Z,3.10
2022-10-08T04:29:22.173Z,1.93
2022-10-08T04:31:50.108Z,2.87
2022-10-08T04:34:18.430Z,2.90
2022-10-08T04:36:46.373Z,2.00
2022-10-08T04:39:15.708Z,2.00
2022-10-08T04:41:43.655Z,2.00
2022-10-08T04:44:11.571Z,2.83
2022-10-08T04:46:39.574Z,1.50
2022-10-08T04:49:07.555Z,2.63
2022-10-08T04:51:35.547Z,1.90
2022-10-08T04:54:03.508Z,2.30
2022-10-08T04:56:35.486Z,2.27
2022-10-08T04:59:04.073Z,1.97
2022-10-08T05:01:32.339Z,2.23
2022-10-08T05:04:00.936Z,3.00
2022-10-08T05:06:30.469Z,2.60
2022-10-08T05:08:59.981Z,2.90
2022-10-08T05:11:28.627Z,2.43
2022-10-08T05:13:59.420Z,2.23
2022-10-08T05:16:28.197Z,1.73
2022-10-08T05:18:57.680Z,2.50
2022-10-08T05:21:27.627Z,1.43
2022-10-08T05:23:56.788Z,1.90
2022-10-08T05:26:56.313Z,2.10
2022-10-08T05:29:17.864Z,1.87
2022-10-08T05:31:46.188Z,2.87
2022-10-08T05:34:14.959Z,2.00
2022-10-08T05:36:43.158Z,2.47
2022-10-08T05:39:12.116Z,2.20
2022-10-08T05:41:40.056Z,1.77
2022-10-08T05:44:09.423Z,1.50
2022-10-08T05:46:39.498Z,2.00
2022-10-08T05:49:08.993Z,1.50
2022-10-08T05:51:38.520Z,2.07
2022-10-08T05:54:06.840Z,2.03
2022-10-08T05:56:34.811Z,2.20
2022-10-08T05:59:02.813Z,1.60
2022-10-08T06:01:32.508Z,2.80
2022-10-08T06:04:08.933Z,2.47
2022-10-08T06:06:38.189Z,3.00
2022-10-08T06:09:07.428Z,2.67
2022-10-08T06:11:37.736Z,2.27
2022-10-08T06:14:07.080Z,2.50
2022-10-08T06:16:35.853Z,3.20
2022-10-08T06:19:05.557Z,2.57
2022-10-08T06:21:34.296Z,2.70
2022-10-08T06:24:05.258Z,2.90
2022-10-08T06:26:37.763Z,2.67
2022-10-08T06:29:06.609Z,2.93
2022-10-08T06:31:35.117Z,2.87
2022-10-08T06:34:04.330Z,2.10
2022-10-08T06:36:37.094Z,2.83
2022-10-08T06:39:07.841Z,2.43
2022-10-08T06:41:35.846Z,1.90
2022-10-08T06:44:04.961Z,2.53
2022-10-08T06:46:33.126Z,1.97
2022-10-08T06:49:01.997Z,1.60
2022-10-08T06:51:30.569Z,2.50
2022-10-08T06:54:07.012Z,2.33
2022-10-08T06:56:37.071Z,3.17
2022-10-08T06:59:05.203Z,2.53
2022-10-08T07:01:34.282Z,3.13
2022-10-08T07:04:03.464Z,2.47
2022-10-08T07:06:31.643Z,2.50
2022-10-08T07:09:02.374Z,2.83
2022-10-08T07:11:32.104Z,2.67
2022-10-08T07:14:00.571Z,2.27
2022-10-08T07:16:29.305Z,2.70
2022-10-08T07:18:58.786Z,3.70
2022-10-08T07:21:27.748Z,2.60
2022-10-08T07:23:56.148Z,2.60
2022-10-08T07:26:27.208Z,2.50
2022-10-08T07:28:57.035Z,2.20
2022-10-08T07:31:28.103Z,2.50
2022-10-08T07:33:56.293Z,2.33
2022-10-08T07:36:26.011Z,2.30
2022-10-08T07:38:57.909Z,3.30
2022-10-08T07:41:27.901Z,2.80
2022-10-08T07:43:58.454Z,2.50
2022-10-08T07:46:26.745Z,2.97
2022-10-08T07:48:56.758Z,4.07
2022-10-08T07:51:24.840Z,2.80
2022-10-08T07:53:53.103Z,2.67
2022-10-08T07:56:22.385Z,3.00
2022-10-08T07:58:52.235Z,4.20
2022-10-08T08:01:22.515Z,3.87
2022-10-08T08:03:54.276Z,2.63
2022-10-08T08:06:22.791Z,2.60
2022-10-08T08:08:51.737Z,3.73
2022-10-08T08:11:22.035Z,3.07
2022-10-08T08:13:53.497Z,2.40
2022-10-08T08:16:25.389Z,2.40
2022-10-08T08:18:55.471Z,3.10
2022-10-08T08:21:27.142Z,2.90
2022-10-08T08:23:56.826Z,3.20
2022-10-08T08:26:26.687Z,2.90
2022-10-08T08:28:57.767Z,3.80
2022-10-08T08:31:27.380Z,2.27
2022-10-08T08:33:57.244Z,3.20
2022-10-08T08:36:27.089Z,3.07
2022-10-08T08:38:55.368Z,2.07
2022-10-08T08:41:36.039Z,2.87
2022-10-08T08:44:11.306Z,3.37
2022-10-08T08:46:42.729Z,3.33
2022-10-08T08:49:19.702Z,3.77
2022-10-08T08:51:47.795Z,2.90
2022-10-08T08:54:15.804Z,2.93
2022-10-08T08:56:44.137Z,3.20
2022-10-08T08:59:25.708Z,3.43
2022-10-08T09:01:57.108Z,3.20
2022-10-08T09:04:30.479Z,3.17
2022-10-08T09:07:01.926Z,3.03
2022-10-08T09:09:35.008Z,3.87
2022-10-08T09:12:16.506Z,2.90
2022-10-08T09:14:53.923Z,4.23
2022-10-08T09:17:29.079Z,3.43
2022-10-08T09:19:57.127Z,2.70
2022-10-08T09:22:27.267Z,3.73
2022-10-08T09:24:59.204Z,2.50
2022-10-08T09:27:43.207Z,2.67
2022-10-08T09:30:29.291Z,3.40
2022-10-08T09:33:00.086Z,3.57
2022-10-08T09:35:28.616Z,3.60
2022-10-08T09:37:59.887Z,2.83
2022-10-08T09:40:31.351Z,2.80
2022-10-08T09:43:18.616Z,3.20
2022-10-08T09:45:50.033Z,3.90
2022-10-08T09:48:26.072Z,2.93
2022-10-08T09:51:02.753Z,2.73
2022-10-08T09:53:36.296Z,3.30
2022-10-08T09:56:06.744Z,2.83
2022-10-08T09:58:36.734Z,2.50
2022-10-08T10:01:13.751Z,3.13
2022-10-08T10:03:48.865Z,2.87
2022-10-08T10:06:21.107Z,3.20
2022-10-08T10:08:55.938Z,2.40
2022-10-08T10:11:30.408Z,3.00
2022-10-08T10:14:00.526Z,3.77
2022-10-08T10:16:36.241Z,1.97
2022-10-08T10:19:09.594Z,2.23
2022-10-08T10:21:41.735Z,3.00
2022-10-08T10:24:36.964Z,2.87
2022-10-08T10:27:10.658Z,2.10
2022-10-08T10:29:47.022Z,3.30
2022-10-08T10:32:21.208Z,2.67
2022-10-08T10:34:56.639Z,3.17
2022-10-08T10:37:33.983Z,2.97
2022-10-08T10:40:18.682Z,2.67
2022-10-08T10:42:55.973Z,3.70
2022-10-08T10:45:27.127Z,2.60
2022-10-08T10:47:56.457Z,3.10
2022-10-08T10:50:36.178Z,2.50
2022-10-08T10:53:11.604Z,1.90
2022-10-08T10:55:45.641Z,2.43
2022-10-08T10:58:31.924Z,2.40
2022-10-08T11:01:09.753Z,2.87
2022-10-08T11:03:46.455Z,1.57
2022-10-08T11:06:36.380Z,1.57
2022-10-08T11:09:13.472Z,1.70
2022-10-08T11:11:46.052Z,1.77
2022-10-08T11:14:33.629Z,2.07
2022-10-08T11:17:10.384Z,1.50
2022-10-08T11:19:55.502Z,2.70
2022-10-08T11:22:31.177Z,2.00
2022-10-08T11:25:20.793Z,3.20
2022-10-08T11:28:00.544Z,2.37
2022-10-08T11:30:39.280Z,2.30
2022-10-08T11:33:12.432Z,2.57
2022-10-08T11:35:49.881Z,3.47
2022-10-08T11:38:25.068Z,2.30
2022-10-08T11:40:57.104Z,2.73
2022-10-08T11:43:31.034Z,1.93
2022-10-08T11:46:22.493Z,1.90
2022-10-08T11:48:51.201Z,2.80
2022-10-08T11:51:38.660Z,2.40
2022-10-08T11:54:12.369Z,2.40
2022-10-08T11:56:42.513Z,2.43
2022-10-08T11:59:31.173Z,2.73
2022-10-08T12:02:02.043Z,2.23
2022-10-08T12:04:32.971Z,2.73
2022-10-08T12:07:22.161Z,3.07
2022-10-08T12:10:04.532Z,2.60
2022-10-08T12:13:17.794Z,2.17
2022-10-08T12:16:07.009Z,3.40
2022-10-08T12:18:53.248Z,2.07
2022-10-08T12:21:51.641Z,1.90
2022-10-08T12:24:50.657Z,3.33
2022-10-08T12:27:25.633Z,2.10
2022-10-08T12:29:58.333Z,2.70
2022-10-08T12:32:27.359Z,2.60
2022-10-08T12:34:55.764Z,3.17
2022-10-08T12:37:53.437Z,2.30
2022-10-08T12:40:32.148Z,1.97
2022-10-08T12:43:14.440Z,2.63
2022-10-08T12:45:52.088Z,2.07
2022-10-08T12:48:31.332Z,1.60
2022-10-08T12:51:09.876Z,2.23
2022-10-08T12:53:38.490Z,3.10
2022-10-08T12:56:06.516Z,2.60
2022-10-08T12:58:38.061Z,2.17
2022-10-08T13:01:07.087Z,2.80
2022-10-08T13:03:35.077Z,1.90
2022-10-08T13:06:17.215Z,2.37
2022-10-08T13:08:45.241Z,2.70
2022-10-08T13:11:15.608Z,1.80
2022-10-08T13:13:49.070Z,1.73
2022-10-08T13:16:18.828Z,1.77
2022-10-08T13:18:48.813Z,2.17
2022-10-08T13:21:36.627Z,1.23
2022-10-08T13:24:20.502Z,2.13
2022-10-08T13:26:50.856Z,1.70
2022-10-08T13:29:33.936Z,2.30
2022-10-08T13:32:05.047Z,2.40
2022-10-08T13:34:35.840Z,1.20
2022-10-08T13:37:06.992Z,1.53
2022-10-08T13:39:37.924Z,1.70
2022-10-08T13:42:09.206Z,1.50
2022-10-08T13:44:41.456Z,1.60
2022-10-08T13:47:12.985Z,2.47
2022-10-08T13:49:40.971Z,1.30
2022-10-08T13:52:14.617Z,2.10
2022-10-08T13:54:42.849Z,1.53
2022-10-08T13:57:11.251Z,2.47
2022-10-08T13:59:40.665Z,1.30
2022-10-08T14:02:11.191Z,2.87
2022-10-08T14:04:39.081Z,1.20
2022-10-08T14:07:21.119Z,1.73
2022-10-08T14:09:49.006Z,1.40
2022-10-08T14:12:18.314Z,1.20
2022-10-08T14:14:47.493Z,1.47
2022-10-08T14:17:15.375Z,3.20
2022-10-08T14:19:43.315Z,1.60
2022-10-08T14:22:13.240Z,1.87
2022-10-08T14:24:41.178Z,1.23
2022-10-08T14:27:09.310Z,1.63
2022-10-08T14:29:37.251Z,1.43
2022-10-08T14:32:08.372Z,1.00
2022-10-08T14:34:36.916Z,1.60
2022-10-08T14:37:05.848Z,2.10
2022-10-08T14:39:33.904Z,1.97
2022-10-08T14:42:01.840Z,1.20
2022-10-08T14:44:29.739Z,1.03
2022-10-08T14:46:57.652Z,1.20
2022-10-08T14:49:26.910Z,1.43
2022-10-08T14:51:54.810Z,1.63
2022-10-08T14:54:22.747Z,1.37
2022-10-08T14:56:50.665Z,1.17
2022-10-08T14:59:19.331Z,1.10
2022-10-08T15:01:47.316Z,0.97
2022-10-08T15:04:16.249Z,1.00
2022-10-08T15:06:45.611Z,1.00
2022-10-08T15:09:15.324Z,0.87
2022-10-08T15:11:43.440Z,0.90
2022-10-08T15:14:11.421Z,0.80
2022-10-08T15:16:39.822Z,1.00
2022-10-08T15:19:08.649Z,0.67
2022-10-08T15:21:36.860Z,0.97
2022-10-08T15:24:06.501Z,1.27
2022-10-08T15:26:34.469Z,1.57
2022-10-08T15:29:02.655Z,2.17
2022-10-08T15:31:30.633Z,1.30
2022-10-08T15:33:59.672Z,0.90
2022-10-08T15:36:30.259Z,1.73
2022-10-08T15:39:00.085Z,0.80
2022-10-08T15:41:31.190Z,0.93
2022-10-08T15:44:09.628Z,0.90
2022-10-08T15:46:37.789Z,1.10
2022-10-08T15:49:05.900Z,0.90
2022-10-08T15:51:34.556Z,1.40
2022-10-08T15:54:03.600Z,1.00
2022-10-08T15:56:33.543Z,0.70
2022-10-08T15:59:02.396Z,0.83
2022-10-08T16:01:31.087Z,0.77
2022-10-08T16:04:00.132Z,0.90
2022-10-08T16:06:29.677Z,0.70
2022-10-08T16:08:58.215Z,1.00
2022-10-08T16:11:27.899Z,1.10
2022-10-08T16:14:00.185Z,1.33
2022-10-08T16:16:28.237Z,1.17
2022-10-08T16:18:58.146Z,0.90
2022-10-08T16:21:26.624Z,1.13
2022-10-08T16:23:54.732Z,0.70
2022-10-08T16:26:23.249Z,0.80
2022-10-08T16:28:55.105Z,1.30
2022-10-08T16:31:25.589Z,0.80
2022-10-08T16:33:57.236Z,0.80
2022-10-08T16:36:25.934Z,1.00
2022-10-08T16:38:54.003Z,0.77
2022-10-08T16:41:24.171Z,0.80
2022-10-08T16:43:54.373Z,0.70
2022-10-08T16:46:25.576Z,1.13
2022-10-08T16:48:54.307Z,1.10
2022-10-08T16:51:24.689Z,0.90
2022-10-08T16:53:54.279Z,0.80
2022-10-08T16:56:23.035Z,1.07
2022-10-08T16:58:53.010Z,0.90
2022-10-08T17:01:21.361Z,0.70
2022-10-08T17:03:51.440Z,1.03
2022-10-08T17:06:20.759Z,0.90
2022-10-08T17:08:49.003Z,1.00
2022-10-08T17:11:18.022Z,0.80
2022-10-08T17:13:47.577Z,0.83
2022-10-08T17:16:16.532Z,0.90
2022-10-08T17:18:45.256Z,0.60
2022-10-08T17:21:16.046Z,0.87
2022-10-08T17:23:44.013Z,1.00
2022-10-08T17:26:13.831Z,1.00
2022-10-08T17:28:43.616Z,0.50
2022-10-08T17:31:14.428Z,0.80
2022-10-08T17:33:43.064Z,1.07
2022-10-08T17:36:14.895Z,0.90
2022-10-08T17:38:44.629Z,0.53
2022-10-08T17:41:14.517Z,0.77
2022-10-08T17:43:43.492Z,0.60
2022-10-08T17:46:14.060Z,0.67
2022-10-08T17:48:42.231Z,1.10
2022-10-08T17:51:14.469Z,0.80
2022-10-08T17:53:43.045Z,0.70
2022-10-08T17:56:13.070Z,0.80
2022-10-08T17:58:41.497Z,1.10
2022-10-08T18:01:12.483Z,0.70
2022-10-08T18:03:42.653Z,1.00
2022-10-08T18:06:12.220Z,1.13
2022-10-08T18:08:41.703Z,0.60
2022-10-08T18:11:12.274Z,1.00
2022-10-08T18:13:40.244Z,0.90
2022-10-08T18:16:09.650Z,0.73
2022-10-08T18:18:37.700Z,0.70
2022-10-08T18:21:06.392Z,1.53
2022-10-08T18:23:35.647Z,1.10
2022-10-08T18:26:19.859Z,1.40
2022-10-08T18:28:48.877Z,1.33
2022-10-08T18:31:17.829Z,1.40
2022-10-08T18:33:47.305Z,1.20
2022-10-08T18:36:17.059Z,1.00
2022-10-08T18:38:46.941Z,0.80
2022-10-08T18:41:18.724Z,1.00
2022-10-08T18:43:48.071Z,0.60
2022-10-08T18:46:18.169Z,1.23
2022-10-08T18:48:46.735Z,0.83
2022-10-08T18:51:16.811Z,0.60
2022-10-08T18:53:45.819Z,0.60
2022-10-08T18:56:17.528Z,0.70
2022-10-08T18:58:46.016Z,0.90
2022-10-08T19:01:19.457Z,0.70
2022-10-08T19:03:48.767Z,0.73
2022-10-08T19:06:17.381Z,0.70
2022-10-08T19:08:45.524Z,0.60
2022-10-08T19:11:16.818Z,0.80
2022-10-08T19:13:45.316Z,0.60
2022-10-08T19:16:15.152Z,0.60
2022-10-08T19:18:44.239Z,0.60
2022-10-08T19:21:13.466Z,0.60
2022-10-08T19:23:41.677Z,0.67
2022-10-08T19:26:09.984Z,0.70
2022-10-08T19:28:40.428Z,0.93
2022-10-08T19:31:15.559Z,0.87
2022-10-08T19:33:43.693Z,0.83
2022-10-08T19:36:11.656Z,1.13
2022-10-08T19:38:39.611Z,0.97
2022-10-08T19:41:08.721Z,0.90
2022-10-08T19:43:36.747Z,0.67
2022-10-08T19:46:07.350Z,0.70
2022-10-08T19:48:35.380Z,0.67
2022-10-08T19:51:08.110Z,1.00
2022-10-08T19:53:36.696Z,0.77
2022-10-08T19:56:06.170Z,0.90
2022-10-08T19:58:34.120Z,0.97
2022-10-08T20:01:03.257Z,0.67
2022-10-08T20:03:32.767Z,1.27
2022-10-08T20:06:03.165Z,0.53
2022-10-08T20:08:31.304Z,0.70
2022-10-08T20:11:02.568Z,0.87
2022-10-08T20:13:30.934Z,0.70
2022-10-08T20:16:03.332Z,0.80
2022-10-08T20:18:33.015Z,1.00
2022-10-08T20:21:02.355Z,0.70
2022-10-08T20:23:30.339Z,0.87
2022-10-08T20:26:09.165Z,0.87
2022-10-08T20:28:37.633Z,0.80
2022-10-08T20:31:14.085Z,0.70
2022-10-08T20:33:44.063Z,0.77
2022-10-08T20:36:13.201Z,0.80
2022-10-08T20:38:41.895Z,0.60
2022-10-08T20:41:10.343Z,1.00
2022-10-08T20:43:39.569Z,0.70
2022-10-08T20:46:09.555Z,1.00
2022-10-08T20:48:38.762Z,0.67
2022-10-08T20:51:10.303Z,0.90
2022-10-08T20:53:38.589Z,0.87
2022-10-08T20:56:08.022Z,0.77
2022-10-08T20:58:37.155Z,1.33
2022-10-08T21:01:07.040Z,1.10
2022-10-08T21:03:36.164Z,0.57
2022-10-08T21:06:04.770Z,1.70
2022-10-08T21:08:36.623Z,0.57
2022-10-08T21:11:05.588Z,0.80
2022-10-08T21:13:34.842Z,1.00
2022-10-08T21:16:04.474Z,0.77
2022-10-08T21:18:32.688Z,1.43
2022-10-08T21:21:03.962Z,0.80
2022-10-08T21:23:33.700Z,1.10
2022-10-08T21:26:09.946Z,1.10
2022-10-08T21:28:38.415Z,1.10
2022-10-08T21:31:07.776Z,0.90
2022-10-08T21:33:36.944Z,0.60
2022-10-08T21:36:05.299Z,0.70
2022-10-08T21:38:34.853Z,0.90
2022-10-08T21:41:11.673Z,0.70
2022-10-08T21:43:40.225Z,0.60
2022-10-08T21:46:10.337Z,0.73
2022-10-08T21:48:39.343Z,0.80
2022-10-08T21:51:09.519Z,0.70
2022-10-08T21:53:40.859Z,0.60
2022-10-08T21:56:12.535Z,0.50
2022-10-08T21:58:42.595Z,0.80
2022-10-08T22:01:21.470Z,0.70
2022-10-08T22:03:49.509Z,0.77
2022-10-08T22:06:17.431Z,0.60
2022-10-08T22:08:46.726Z,0.80
2022-10-08T22:11:14.959Z,0.70
2022-10-08T22:13:43.125Z,1.03
2022-10-08T22:16:12.872Z,0.70
2022-10-08T22:18:41.903Z,0.60
2022-10-08T22:21:13.281Z,0.60
2022-10-08T22:23:41.440Z,0.60
2022-10-08T22:26:13.505Z,0.80
2022-10-08T22:28:42.400Z,0.80
2022-10-08T22:31:12.375Z,0.73
2022-10-08T22:33:40.424Z,0.70
2022-10-08T22:36:10.580Z,0.77
2022-10-08T22:38:40.451Z,0.90
2022-10-08T22:41:11.777Z,1.00
2022-10-08T22:43:41.152Z,1.10
2022-10-08T22:46:12.333Z,0.60
2022-10-08T22:48:41.082Z,0.83
2022-10-08T22:51:12.133Z,1.47
2022-10-08T22:53:40.129Z,0.73
2022-10-08T22:56:11.834Z,0.77
2022-10-08T22:58:39.933Z,0.70
2022-10-08T23:01:09.544Z,1.23
2022-10-08T23:03:38.390Z,0.57
2022-10-08T23:06:09.148Z,0.90
2022-10-08T23:08:37.736Z,1.30
2022-10-08T23:11:06.470Z,1.00
2022-10-08T23:13:36.064Z,0.60
2022-10-08T23:16:06.738Z,1.10
2022-10-08T23:18:37.332Z,0.80
2022-10-08T23:21:07.606Z,1.00
2022-10-08T23:23:36.815Z,0.60
2022-10-08T23:26:06.733Z,0.83
2022-10-08T23:28:38.214Z,1.40
2022-10-08T23:31:07.662Z,0.60
2022-10-08T23:33:37.934Z,0.70
2022-10-08T23:36:07.265Z,0.80
2022-10-08T23:38:35.437Z,0.70
2022-10-08T23:41:05.180Z,0.70
2022-10-08T23:43:38.132Z,0.73
2022-10-08T23:46:07.805Z,0.90
2022-10-08T23:48:36.643Z,0.50
2022-10-08T23:51:05.712Z,0.77
2022-10-08T23:53:34.402Z,0.60
2022-10-08T23:56:02.382Z,0.70
2022-10-08T23:58:30.416Z,1.17
